sensor_id;sensor_type;location;lat;lon;timestamp;temperature;humidity
63371;DHT22;49504;48.336;14.472;2023-05-08T00:01:22;24.90;47.50
63371;DHT22;49504;48.336;14.472;2023-05-08T00:04:43;24.90;47.40
63371;DHT22;49504;48.336;14.472;2023-05-08T00:08:04;24.90;48.10
63371;DHT22;49504;48.336;14.472;2023-05-08T00:11:25;25.00;47.50
63371;DHT22;49504;48.336;14.472;2023-05-08T00:14:48;24.90;47.30
63371;DHT22;49504;48.336;14.472;2023-05-08T00:18:09;24.90;47.30
63371;DHT22;49504;48.336;14.472;2023-05-08T00:21:30;24.90;47.20
63371;DHT22;49504;48.336;14.472;2023-05-08T00:24:51;24.90;47.30
63371;DHT22;49504;48.336;14.472;2023-05-08T00:28:12;24.90;47.30
63371;DHT22;49504;48.336;14.472;2023-05-08T00:31:35;24.90;47.30
63371;DHT22;49504;48.336;14.472;2023-05-08T00:34:56;24.90;47.40
63371;DHT22;49504;48.336;14.472;2023-05-08T00:38:18;24.90;47.40
63371;DHT22;49504;48.336;14.472;2023-05-08T00:41:39;24.90;47.30
63371;DHT22;49504;48.336;14.472;2023-05-08T00:45:00;24.90;47.40
63371;DHT22;49504;48.336;14.472;2023-05-08T00:48:23;24.90;47.40
63371;DHT22;49504;48.336;14.472;2023-05-08T00:51:46;24.90;47.40
63371;DHT22;49504;48.336;14.472;2023-05-08T00:55:08;24.90;47.40
63371;DHT22;49504;48.336;14.472;2023-05-08T00:58:31;24.90;47.50
63371;DHT22;49504;48.336;14.472;2023-05-08T01:01:52;24.80;47.30
63371;DHT22;49504;48.336;14.472;2023-05-08T01:05:14;24.90;47.40
63371;DHT22;49504;48.336;14.472;2023-05-08T01:08:36;24.90;47.30
63371;DHT22;49504;48.336;14.472;2023-05-08T01:12:04;24.90;47.40
63371;DHT22;49504;48.336;14.472;2023-05-08T01:15:31;24.80;47.40
63371;DHT22;49504;48.336;14.472;2023-05-08T01:19:01;24.90;47.60
63371;DHT22;49504;48.336;14.472;2023-05-08T01:27:19;24.90;48.20
63371;DHT22;49504;48.336;14.472;2023-05-08T01:31:02;24.80;47.50
63371;DHT22;49504;48.336;14.472;2023-05-08T01:34:31;24.80;47.40
63371;DHT22;49504;48.336;14.472;2023-05-08T01:37:59;24.80;47.30
63371;DHT22;49504;48.336;14.472;2023-05-08T01:41:26;24.80;47.30
63371;DHT22;49504;48.336;14.472;2023-05-08T01:44:52;24.80;47.40
63371;DHT22;49504;48.336;14.472;2023-05-08T01:51:04;24.80;46.90
63371;DHT22;49504;48.336;14.472;2023-05-08T01:54:29;24.80;47.40
63371;DHT22;49504;48.336;14.472;2023-05-08T01:57:57;24.80;47.40
63371;DHT22;49504;48.336;14.472;2023-05-08T02:01:22;24.80;47.40
63371;DHT22;49504;48.336;14.472;2023-05-08T02:04:44;24.80;47.30
63371;DHT22;49504;48.336;14.472;2023-05-08T02:11:06;24.80;46.90
63371;DHT22;49504;48.336;14.472;2023-05-08T02:14:28;24.80;47.30
63371;DHT22;49504;48.336;14.472;2023-05-08T02:17:51;24.80;47.50
63371;DHT22;49504;48.336;14.472;2023-05-08T02:21:14;24.80;47.30
63371;DHT22;49504;48.336;14.472;2023-05-08T02:24:37;24.80;47.40
63371;DHT22;49504;48.336;14.472;2023-05-08T02:28:00;24.80;47.30
63371;DHT22;49504;48.336;14.472;2023-05-08T02:31:23;24.80;47.30
63371;DHT22;49504;48.336;14.472;2023-05-08T02:34:44;24.80;47.30
63371;DHT22;49504;48.336;14.472;2023-05-08T02:38:07;24.80;47.40
63371;DHT22;49504;48.336;14.472;2023-05-08T02:41:31;24.80;47.30
63371;DHT22;49504;48.336;14.472;2023-05-08T02:44:54;24.80;47.40
63371;DHT22;49504;48.336;14.472;2023-05-08T02:48:21;24.80;47.40
63371;DHT22;49504;48.336;14.472;2023-05-08T02:51:49;24.80;47.30
63371;DHT22;49504;48.336;14.472;2023-05-08T02:55:28;24.80;47.20
63371;DHT22;49504;48.336;14.472;2023-05-08T02:58:59;24.80;47.20
63371;DHT22;49504;48.336;14.472;2023-05-08T03:02:27;24.80;47.10
63371;DHT22;49504;48.336;14.472;2023-05-08T03:05:54;24.80;47.20
63371;DHT22;49504;48.336;14.472;2023-05-08T03:09:19;24.80;47.10
63371;DHT22;49504;48.336;14.472;2023-05-08T03:12:44;24.80;47.20
63371;DHT22;49504;48.336;14.472;2023-05-08T03:16:10;24.80;47.20
63371;DHT22;49504;48.336;14.472;2023-05-08T03:19:36;24.80;47.30
63371;DHT22;49504;48.336;14.472;2023-05-08T03:23:02;24.80;47.20
63371;DHT22;49504;48.336;14.472;2023-05-08T03:26:24;24.80;47.00
63371;DHT22;49504;48.336;14.472;2023-05-08T03:29:46;24.80;47.10
63371;DHT22;49504;48.336;14.472;2023-05-08T03:33:08;24.70;47.10
63371;DHT22;49504;48.336;14.472;2023-05-08T03:36:32;24.80;47.40
63371;DHT22;49504;48.336;14.472;2023-05-08T03:39:54;24.80;47.20
63371;DHT22;49504;48.336;14.472;2023-05-08T03:43:16;24.80;47.40
63371;DHT22;49504;48.336;14.472;2023-05-08T03:46:40;24.80;47.20
63371;DHT22;49504;48.336;14.472;2023-05-08T03:50:02;24.80;46.90
63371;DHT22;49504;48.336;14.472;2023-05-08T03:53:26;24.80;47.30
63371;DHT22;49504;48.336;14.472;2023-05-08T03:56:49;24.80;46.60
63371;DHT22;49504;48.336;14.472;2023-05-08T04:00:13;24.80;46.30
63371;DHT22;49504;48.336;14.472;2023-05-08T04:03:52;24.80;46.40
63371;DHT22;49504;48.336;14.472;2023-05-08T04:07:25;24.80;46.30
63371;DHT22;49504;48.336;14.472;2023-05-08T04:10:56;24.80;46.80
63371;DHT22;49504;48.336;14.472;2023-05-08T04:14:28;24.80;46.80
63371;DHT22;49504;48.336;14.472;2023-05-08T04:17:54;24.80;46.90
63371;DHT22;49504;48.336;14.472;2023-05-08T04:21:22;24.80;46.60
63371;DHT22;49504;48.336;14.472;2023-05-08T04:24:47;24.80;46.90
63371;DHT22;49504;48.336;14.472;2023-05-08T04:28:11;24.80;47.10
63371;DHT22;49504;48.336;14.472;2023-05-08T04:31:42;24.80;46.60
63371;DHT22;49504;48.336;14.472;2023-05-08T04:35:04;24.80;47.30
63371;DHT22;49504;48.336;14.472;2023-05-08T04:38:26;24.80;47.20
63371;DHT22;49504;48.336;14.472;2023-05-08T04:41:47;24.80;47.30
63371;DHT22;49504;48.336;14.472;2023-05-08T04:45:09;24.80;47.40
63371;DHT22;49504;48.336;14.472;2023-05-08T04:48:32;24.80;47.40
63371;DHT22;49504;48.336;14.472;2023-05-08T04:51:54;24.80;47.50
63371;DHT22;49504;48.336;14.472;2023-05-08T04:55:15;24.80;46.90
63371;DHT22;49504;48.336;14.472;2023-05-08T04:58:37;24.80;46.80
63371;DHT22;49504;48.336;14.472;2023-05-08T05:01:59;24.80;46.90
63371;DHT22;49504;48.336;14.472;2023-05-08T05:05:21;24.80;47.00
63371;DHT22;49504;48.336;14.472;2023-05-08T05:08:42;24.80;47.10
63371;DHT22;49504;48.336;14.472;2023-05-08T05:12:04;24.80;47.10
63371;DHT22;49504;48.336;14.472;2023-05-08T05:18:38;24.80;46.70
63371;DHT22;49504;48.336;14.472;2023-05-08T05:21:59;24.80;47.30
63371;DHT22;49504;48.336;14.472;2023-05-08T05:25:21;24.80;47.30
63371;DHT22;49504;48.336;14.472;2023-05-08T05:31:38;24.80;46.90
63371;DHT22;49504;48.336;14.472;2023-05-08T05:34:59;24.80;47.60
63371;DHT22;49504;48.336;14.472;2023-05-08T05:38:21;24.80;47.50
63371;DHT22;49504;48.336;14.472;2023-05-08T05:41:42;24.70;47.60
63371;DHT22;49504;48.336;14.472;2023-05-08T05:45:05;24.70;47.50
63371;DHT22;49504;48.336;14.472;2023-05-08T05:48:29;24.70;47.60
63371;DHT22;49504;48.336;14.472;2023-05-08T05:51:50;24.70;47.70
63371;DHT22;49504;48.336;14.472;2023-05-08T05:55:11;24.70;47.70
63371;DHT22;49504;48.336;14.472;2023-05-08T05:58:33;24.70;47.80
63371;DHT22;49504;48.336;14.472;2023-05-08T06:01:54;24.70;47.70
63371;DHT22;49504;48.336;14.472;2023-05-08T06:05:17;24.70;47.70
63371;DHT22;49504;48.336;14.472;2023-05-08T06:08:38;24.70;47.60
63371;DHT22;49504;48.336;14.472;2023-05-08T06:11:59;24.70;47.80
63371;DHT22;49504;48.336;14.472;2023-05-08T06:15:21;24.70;47.90
63371;DHT22;49504;48.336;14.472;2023-05-08T06:18:42;24.70;47.90
63371;DHT22;49504;48.336;14.472;2023-05-08T06:22:05;24.70;47.90
63371;DHT22;49504;48.336;14.472;2023-05-08T06:25:26;24.70;47.90
63371;DHT22;49504;48.336;14.472;2023-05-08T06:28:47;24.70;47.90
63371;DHT22;49504;48.336;14.472;2023-05-08T06:32:08;24.60;47.80
63371;DHT22;49504;48.336;14.472;2023-05-08T06:37:30;24.60;47.20
63371;DHT22;49504;48.336;14.472;2023-05-08T06:40:51;24.60;48.00
63371;DHT22;49504;48.336;14.472;2023-05-08T06:44:12;24.70;48.10
63371;DHT22;49504;48.336;14.472;2023-05-08T06:49:03;24.60;47.40
63371;DHT22;49504;48.336;14.472;2023-05-08T06:52:24;24.70;48.20
63371;DHT22;49504;48.336;14.472;2023-05-08T06:55:45;24.70;48.30
63371;DHT22;49504;48.336;14.472;2023-05-08T06:59:06;24.70;48.50
63371;DHT22;49504;48.336;14.472;2023-05-08T07:02:27;24.70;49.10
63371;DHT22;49504;48.336;14.472;2023-05-08T07:05:50;24.60;48.90
63371;DHT22;49504;48.336;14.472;2023-05-08T07:09:11;24.60;48.20
63371;DHT22;49504;48.336;14.472;2023-05-08T07:12:32;24.70;48.20
63371;DHT22;49504;48.336;14.472;2023-05-08T07:15:53;24.70;48.30
63371;DHT22;49504;48.336;14.472;2023-05-08T07:22:18;24.60;47.50
63371;DHT22;49504;48.336;14.472;2023-05-08T07:25:39;24.60;48.80
63371;DHT22;49504;48.336;14.472;2023-05-08T07:29:00;24.60;48.10
63371;DHT22;49504;48.336;14.472;2023-05-08T07:32:22;24.60;48.20
63371;DHT22;49504;48.336;14.472;2023-05-08T07:35:43;24.70;48.30
63371;DHT22;49504;48.336;14.472;2023-05-08T07:39:06;24.70;48.20
63371;DHT22;49504;48.336;14.472;2023-05-08T07:42:27;24.70;48.30
63371;DHT22;49504;48.336;14.472;2023-05-08T07:45:48;24.70;48.10
63371;DHT22;49504;48.336;14.472;2023-05-08T07:49:09;24.70;48.00
63371;DHT22;49504;48.336;14.472;2023-05-08T07:52:30;24.70;48.20
63371;DHT22;49504;48.336;14.472;2023-05-08T07:55:53;24.70;48.10
63371;DHT22;49504;48.336;14.472;2023-05-08T07:59:14;24.70;48.30
63371;DHT22;49504;48.336;14.472;2023-05-08T08:02:35;24.70;47.90
63371;DHT22;49504;48.336;14.472;2023-05-08T08:05:56;24.70;47.80
63371;DHT22;49504;48.336;14.472;2023-05-08T08:09:17;24.70;47.70
63371;DHT22;49504;48.336;14.472;2023-05-08T08:12:40;24.70;47.90
63371;DHT22;49504;48.336;14.472;2023-05-08T08:16:01;24.70;48.00
63371;DHT22;49504;48.336;14.472;2023-05-08T08:19:22;24.70;47.80
63371;DHT22;49504;48.336;14.472;2023-05-08T08:22:43;24.70;47.80
63371;DHT22;49504;48.336;14.472;2023-05-08T08:26:04;24.70;47.90
63371;DHT22;49504;48.336;14.472;2023-05-08T08:29:27;24.70;48.00
63371;DHT22;49504;48.336;14.472;2023-05-08T08:32:48;24.70;47.70
63371;DHT22;49504;48.336;14.472;2023-05-08T08:36:12;24.70;47.60
63371;DHT22;49504;48.336;14.472;2023-05-08T08:39:33;24.70;47.60
63371;DHT22;49504;48.336;14.472;2023-05-08T08:42:54;24.70;47.60
63371;DHT22;49504;48.336;14.472;2023-05-08T08:46:19;24.70;47.60
63371;DHT22;49504;48.336;14.472;2023-05-08T08:49:47;24.70;47.30
63371;DHT22;49504;48.336;14.472;2023-05-08T08:53:10;24.70;47.50
63371;DHT22;49504;48.336;14.472;2023-05-08T08:56:50;24.70;47.00
63371;DHT22;49504;48.336;14.472;2023-05-08T09:00:13;24.70;47.60
63371;DHT22;49504;48.336;14.472;2023-05-08T09:05:49;24.70;47.10
63371;DHT22;49504;48.336;14.472;2023-05-08T09:09:11;24.80;47.60
63371;DHT22;49504;48.336;14.472;2023-05-08T09:12:32;24.70;47.60
63371;DHT22;49504;48.336;14.472;2023-05-08T09:15:53;24.70;47.60
63371;DHT22;49504;48.336;14.472;2023-05-08T09:19:15;24.70;47.60
63371;DHT22;49504;48.336;14.472;2023-05-08T09:23:12;24.70;46.40
63371;DHT22;49504;48.336;14.472;2023-05-08T09:26:35;24.70;45.10
63371;DHT22;49504;48.336;14.472;2023-05-08T09:30:01;24.70;45.00
63371;DHT22;49504;48.336;14.472;2023-05-08T09:33:24;24.70;45.40
63371;DHT22;49504;48.336;14.472;2023-05-08T09:36:46;24.70;45.80
63371;DHT22;49504;48.336;14.472;2023-05-08T09:40:16;24.80;46.40
63371;DHT22;49504;48.336;14.472;2023-05-08T09:43:39;24.70;46.70
63371;DHT22;49504;48.336;14.472;2023-05-08T09:47:10;24.70;46.80
63371;DHT22;49504;48.336;14.472;2023-05-08T09:51:04;24.70;46.20
63371;DHT22;49504;48.336;14.472;2023-05-08T09:54:26;24.70;47.50
63371;DHT22;49504;48.336;14.472;2023-05-08T09:57:52;24.70;46.90
63371;DHT22;49504;48.336;14.472;2023-05-08T10:01:27;24.70;47.60
63371;DHT22;49504;48.336;14.472;2023-05-08T10:04:49;24.70;46.90
63371;DHT22;49504;48.336;14.472;2023-05-08T10:08:19;24.70;46.80
63371;DHT22;49504;48.336;14.472;2023-05-08T10:12:01;24.70;46.30
63371;DHT22;49504;48.336;14.472;2023-05-08T10:15:24;24.80;47.00
63371;DHT22;49504;48.336;14.472;2023-05-08T10:18:47;24.70;46.70
63371;DHT22;49504;48.336;14.472;2023-05-08T10:22:10;24.80;47.10
63371;DHT22;49504;48.336;14.472;2023-05-08T10:27:42;24.70;46.50
63371;DHT22;49504;48.336;14.472;2023-05-08T10:31:06;24.80;47.10
63371;DHT22;49504;48.336;14.472;2023-05-08T10:34:30;24.80;47.20
63371;DHT22;49504;48.336;14.472;2023-05-08T10:37:53;24.80;47.20
63371;DHT22;49504;48.336;14.472;2023-05-08T10:41:15;24.80;47.20
63371;DHT22;49504;48.336;14.472;2023-05-08T10:44:38;24.80;47.10
63371;DHT22;49504;48.336;14.472;2023-05-08T10:48:07;24.80;47.20
63371;DHT22;49504;48.336;14.472;2023-05-08T10:51:37;24.80;47.30
63371;DHT22;49504;48.336;14.472;2023-05-08T10:55:21;24.80;47.30
63371;DHT22;49504;48.336;14.472;2023-05-08T10:58:45;24.80;47.20
63371;DHT22;49504;48.336;14.472;2023-05-08T11:02:25;24.80;47.20
63371;DHT22;49504;48.336;14.472;2023-05-08T11:05:49;24.80;47.40
63371;DHT22;49504;48.336;14.472;2023-05-08T11:09:19;24.80;47.30
63371;DHT22;49504;48.336;14.472;2023-05-08T11:12:48;24.80;46.90
63371;DHT22;49504;48.336;14.472;2023-05-08T11:16:09;24.80;47.00
63371;DHT22;49504;48.336;14.472;2023-05-08T11:19:32;24.80;47.10
63371;DHT22;49504;48.336;14.472;2023-05-08T11:22:54;24.80;47.10
63371;DHT22;49504;48.336;14.472;2023-05-08T11:26:15;24.90;47.30
63371;DHT22;49504;48.336;14.472;2023-05-08T11:29:36;24.90;47.40
63371;DHT22;49504;48.336;14.472;2023-05-08T11:33:14;24.90;47.50
63371;DHT22;49504;48.336;14.472;2023-05-08T11:36:37;24.90;47.40
63371;DHT22;49504;48.336;14.472;2023-05-08T11:44:16;24.90;48.10
63371;DHT22;49504;48.336;14.472;2023-05-08T11:47:40;24.90;48.20
63371;DHT22;49504;48.336;14.472;2023-05-08T11:51:02;25.00;51.60
63371;DHT22;49504;48.336;14.472;2023-05-08T11:55:06;25.00;48.60
63371;DHT22;49504;48.336;14.472;2023-05-08T11:58:29;25.00;49.00
63371;DHT22;49504;48.336;14.472;2023-05-08T12:01:51;25.00;48.70
63371;DHT22;49504;48.336;14.472;2023-05-08T12:05:12;25.00;48.60
63371;DHT22;49504;48.336;14.472;2023-05-08T12:08:38;25.00;48.60
63371;DHT22;49504;48.336;14.472;2023-05-08T12:12:00;25.10;48.70
63371;DHT22;49504;48.336;14.472;2023-05-08T12:15:21;25.10;49.00
63371;DHT22;49504;48.336;14.472;2023-05-08T12:18:42;25.10;49.20
63371;DHT22;49504;48.336;14.472;2023-05-08T12:22:03;25.10;49.20
63371;DHT22;49504;48.336;14.472;2023-05-08T12:25:25;25.10;49.20
63371;DHT22;49504;48.336;14.472;2023-05-08T12:28:53;25.10;49.00
63371;DHT22;49504;48.336;14.472;2023-05-08T12:32:14;25.10;49.00
63371;DHT22;49504;48.336;14.472;2023-05-08T12:35:36;25.10;49.10
63371;DHT22;49504;48.336;14.472;2023-05-08T12:39:08;25.10;49.00
63371;DHT22;49504;48.336;14.472;2023-05-08T12:42:44;25.10;49.00
63371;DHT22;49504;48.336;14.472;2023-05-08T12:48:31;25.10;48.30
63371;DHT22;49504;48.336;14.472;2023-05-08T12:52:00;25.20;49.30
63371;DHT22;49504;48.336;14.472;2023-05-08T12:55:25;25.20;49.20
63371;DHT22;49504;48.336;14.472;2023-05-08T12:58:47;25.20;49.40
63371;DHT22;49504;48.336;14.472;2023-05-08T13:02:13;25.20;49.40
63371;DHT22;49504;48.336;14.472;2023-05-08T13:05:40;25.20;49.30
63371;DHT22;49504;48.336;14.472;2023-05-08T13:09:02;25.20;49.30
63371;DHT22;49504;48.336;14.472;2023-05-08T13:12:24;25.20;49.30
63371;DHT22;49504;48.336;14.472;2023-05-08T13:15:46;25.30;49.40
63371;DHT22;49504;48.336;14.472;2023-05-08T13:19:08;25.20;49.30
63371;DHT22;49504;48.336;14.472;2023-05-08T13:22:30;25.30;49.30
63371;DHT22;49504;48.336;14.472;2023-05-08T13:25:51;25.30;49.30
63371;DHT22;49504;48.336;14.472;2023-05-08T13:29:12;25.30;49.30
63371;DHT22;49504;48.336;14.472;2023-05-08T13:32:34;25.30;49.20
63371;DHT22;49504;48.336;14.472;2023-05-08T13:35:55;25.30;49.30
63371;DHT22;49504;48.336;14.472;2023-05-08T13:39:18;25.30;49.20
63371;DHT22;49504;48.336;14.472;2023-05-08T13:42:40;25.30;49.20
63371;DHT22;49504;48.336;14.472;2023-05-08T13:46:01;25.30;49.20
63371;DHT22;49504;48.336;14.472;2023-05-08T13:52:22;25.30;48.50
63371;DHT22;49504;48.336;14.472;2023-05-08T13:55:43;25.40;49.40
63371;DHT22;49504;48.336;14.472;2023-05-08T13:59:04;25.40;49.40
63371;DHT22;49504;48.336;14.472;2023-05-08T14:02:26;25.30;49.30
63371;DHT22;49504;48.336;14.472;2023-05-08T14:05:47;25.40;49.30
63371;DHT22;49504;48.336;14.472;2023-05-08T14:11:44;25.30;48.60
63371;DHT22;49504;48.336;14.472;2023-05-08T14:15:07;25.40;49.50
63371;DHT22;49504;48.336;14.472;2023-05-08T14:18:29;25.40;49.50
63371;DHT22;49504;48.336;14.472;2023-05-08T14:21:50;25.40;49.50
63371;DHT22;49504;48.336;14.472;2023-05-08T14:25:11;25.40;49.40
63371;DHT22;49504;48.336;14.472;2023-05-08T14:28:34;25.40;49.30
63371;DHT22;49504;48.336;14.472;2023-05-08T14:31:55;25.40;49.30
63371;DHT22;49504;48.336;14.472;2023-05-08T14:35:16;25.40;49.20
63371;DHT22;49504;48.336;14.472;2023-05-08T14:38:37;25.40;49.20
63371;DHT22;49504;48.336;14.472;2023-05-08T14:42:00;25.40;49.20
63371;DHT22;49504;48.336;14.472;2023-05-08T14:45:22;25.40;49.20
63371;DHT22;49504;48.336;14.472;2023-05-08T14:49:08;25.40;48.60
63371;DHT22;49504;48.336;14.472;2023-05-08T14:52:29;25.40;49.20
63371;DHT22;49504;48.336;14.472;2023-05-08T14:55:50;25.40;49.20
63371;DHT22;49504;48.336;14.472;2023-05-08T14:59:11;25.40;49.20
63371;DHT22;49504;48.336;14.472;2023-05-08T15:02:32;25.40;49.20
63371;DHT22;49504;48.336;14.472;2023-05-08T15:05:55;25.40;49.20
63371;DHT22;49504;48.336;14.472;2023-05-08T15:09:17;25.40;49.30
63371;DHT22;49504;48.336;14.472;2023-05-08T15:12:38;25.50;49.40
63371;DHT22;49504;48.336;14.472;2023-05-08T15:16:00;25.40;49.40
63371;DHT22;49504;48.336;14.472;2023-05-08T15:19:21;25.50;49.30
63371;DHT22;49504;48.336;14.472;2023-05-08T15:22:43;25.40;49.40
63371;DHT22;49504;48.336;14.472;2023-05-08T15:26:04;25.40;49.10
63371;DHT22;49504;48.336;14.472;2023-05-08T15:29:25;25.40;49.40
63371;DHT22;49504;48.336;14.472;2023-05-08T15:32:46;25.40;49.30
63371;DHT22;49504;48.336;14.472;2023-05-08T15:36:08;25.40;49.50
63371;DHT22;49504;48.336;14.472;2023-05-08T15:39:30;25.40;49.50
63371;DHT22;49504;48.336;14.472;2023-05-08T15:42:55;25.40;49.20
63371;DHT22;49504;48.336;14.472;2023-05-08T15:46:16;25.40;49.30
63371;DHT22;49504;48.336;14.472;2023-05-08T15:51:58;25.40;48.70
63371;DHT22;49504;48.336;14.472;2023-05-08T15:55:19;25.40;49.20
63371;DHT22;49504;48.336;14.472;2023-05-08T15:59:22;25.40;48.50
63371;DHT22;49504;48.336;14.472;2023-05-08T16:04:26;25.40;48.60
63371;DHT22;49504;48.336;14.472;2023-05-08T16:07:47;25.40;49.20
63371;DHT22;49504;48.336;14.472;2023-05-08T16:11:09;25.40;49.20
63371;DHT22;49504;48.336;14.472;2023-05-08T16:14:30;25.40;49.30
63371;DHT22;49504;48.336;14.472;2023-05-08T16:17:51;25.40;49.30
63371;DHT22;49504;48.336;14.472;2023-05-08T16:21:13;25.30;49.20
63371;DHT22;49504;48.336;14.472;2023-05-08T16:24:34;25.40;49.20
63371;DHT22;49504;48.336;14.472;2023-05-08T16:27:55;25.40;49.10
63371;DHT22;49504;48.336;14.472;2023-05-08T16:31:17;25.40;49.10
63371;DHT22;49504;48.336;14.472;2023-05-08T16:34:38;25.40;49.50
63371;DHT22;49504;48.336;14.472;2023-05-08T16:38:01;25.40;49.30
63371;DHT22;49504;48.336;14.472;2023-05-08T16:41:22;25.30;49.20
63371;DHT22;49504;48.336;14.472;2023-05-08T16:44:43;25.30;49.10
63371;DHT22;49504;48.336;14.472;2023-05-08T16:48:05;25.30;49.20
63371;DHT22;49504;48.336;14.472;2023-05-08T16:51:26;25.30;49.30
63371;DHT22;49504;48.336;14.472;2023-05-08T16:54:48;25.30;49.20
63371;DHT22;49504;48.336;14.472;2023-05-08T16:58:09;25.30;49.20
63371;DHT22;49504;48.336;14.472;2023-05-08T17:01:31;25.40;49.20
63371;DHT22;49504;48.336;14.472;2023-05-08T17:04:52;25.30;49.10
63371;DHT22;49504;48.336;14.472;2023-05-08T17:08:13;25.30;49.10
63371;DHT22;49504;48.336;14.472;2023-05-08T17:12:36;25.30;48.50
63371;DHT22;49504;48.336;14.472;2023-05-08T17:15:57;25.30;49.20
63371;DHT22;49504;48.336;14.472;2023-05-08T17:19:18;25.30;49.10
63371;DHT22;49504;48.336;14.472;2023-05-08T17:25:38;25.30;48.70
63371;DHT22;49504;48.336;14.472;2023-05-08T17:28:59;25.30;49.30
63371;DHT22;49504;48.336;14.472;2023-05-08T17:32:20;25.30;49.30
63371;DHT22;49504;48.336;14.472;2023-05-08T17:37:38;25.30;48.60
63371;DHT22;49504;48.336;14.472;2023-05-08T17:40:59;25.30;49.40
63371;DHT22;49504;48.336;14.472;2023-05-08T17:44:20;25.30;49.30
63371;DHT22;49504;48.336;14.472;2023-05-08T17:47:41;25.30;49.30
63371;DHT22;49504;48.336;14.472;2023-05-08T17:54:10;25.30;48.90
63371;DHT22;49504;48.336;14.472;2023-05-08T17:57:32;25.30;49.50
63371;DHT22;49504;48.336;14.472;2023-05-08T18:00:53;25.30;49.50
63371;DHT22;49504;48.336;14.472;2023-05-08T18:04:14;25.30;49.50
63371;DHT22;49504;48.336;14.472;2023-05-08T18:07:35;25.30;49.50
63371;DHT22;49504;48.336;14.472;2023-05-08T18:12:27;25.30;48.80
63371;DHT22;49504;48.336;14.472;2023-05-08T18:15:48;25.40;49.50
63371;DHT22;49504;48.336;14.472;2023-05-08T18:19:21;25.40;49.60
63371;DHT22;49504;48.336;14.472;2023-05-08T18:22:43;25.40;49.50
63371;DHT22;49504;48.336;14.472;2023-05-08T18:26:04;25.30;49.30
63371;DHT22;49504;48.336;14.472;2023-05-08T18:29:27;25.40;49.40
63371;DHT22;49504;48.336;14.472;2023-05-08T18:35:07;25.30;48.70
63371;DHT22;49504;48.336;14.472;2023-05-08T18:38:28;25.30;49.30
63371;DHT22;49504;48.336;14.472;2023-05-08T18:41:49;25.40;49.30
63371;DHT22;49504;48.336;14.472;2023-05-08T18:45:11;25.40;49.30
63371;DHT22;49504;48.336;14.472;2023-05-08T18:48:32;25.40;49.30
63371;DHT22;49504;48.336;14.472;2023-05-08T18:51:54;25.40;49.30
63371;DHT22;49504;48.336;14.472;2023-05-08T18:55:16;25.40;49.30
63371;DHT22;49504;48.336;14.472;2023-05-08T18:58:37;25.40;49.50
63371;DHT22;49504;48.336;14.472;2023-05-08T19:01:58;25.40;49.30
63371;DHT22;49504;48.336;14.472;2023-05-08T19:05:20;25.40;49.40
63371;DHT22;49504;48.336;14.472;2023-05-08T19:08:42;25.40;49.30
63371;DHT22;49504;48.336;14.472;2023-05-08T19:12:03;25.40;49.30
63371;DHT22;49504;48.336;14.472;2023-05-08T19:15:24;25.30;49.20
63371;DHT22;49504;48.336;14.472;2023-05-08T19:18:46;25.40;49.30
63371;DHT22;49504;48.336;14.472;2023-05-08T19:22:07;25.40;49.30
63371;DHT22;49504;48.336;14.472;2023-05-08T19:25:29;25.40;49.30
63371;DHT22;49504;48.336;14.472;2023-05-08T19:30:29;25.40;48.70
63371;DHT22;49504;48.336;14.472;2023-05-08T19:33:50;25.40;49.80
63371;DHT22;49504;48.336;14.472;2023-05-08T19:37:11;25.40;49.80
63371;DHT22;49504;48.336;14.472;2023-05-08T19:41:43;25.40;48.90
63371;DHT22;49504;48.336;14.472;2023-05-08T19:47:13;25.30;49.10
63371;DHT22;49504;48.336;14.472;2023-05-08T19:50:34;25.40;49.60
63371;DHT22;49504;48.336;14.472;2023-05-08T19:53:55;25.40;49.50
63371;DHT22;49504;48.336;14.472;2023-05-08T19:57:16;25.40;49.50
63371;DHT22;49504;48.336;14.472;2023-05-08T20:00:37;25.30;49.30
63371;DHT22;49504;48.336;14.472;2023-05-08T20:03:59;25.30;49.50
63371;DHT22;49504;48.336;14.472;2023-05-08T20:07:21;25.40;49.90
63371;DHT22;49504;48.336;14.472;2023-05-08T20:10:42;25.30;49.50
63371;DHT22;49504;48.336;14.472;2023-05-08T20:14:03;25.40;49.90
63371;DHT22;49504;48.336;14.472;2023-05-08T20:17:24;25.30;50.00
63371;DHT22;49504;48.336;14.472;2023-05-08T20:20:46;25.40;49.90
63371;DHT22;49504;48.336;14.472;2023-05-08T20:24:07;25.40;50.00
63371;DHT22;49504;48.336;14.472;2023-05-08T20:27:28;25.40;50.10
63371;DHT22;49504;48.336;14.472;2023-05-08T20:30:50;25.40;49.80
63371;DHT22;49504;48.336;14.472;2023-05-08T20:34:11;25.40;49.60
63371;DHT22;49504;48.336;14.472;2023-05-08T20:37:33;25.40;49.60
63371;DHT22;49504;48.336;14.472;2023-05-08T20:40:54;25.40;49.40
63371;DHT22;49504;48.336;14.472;2023-05-08T20:44:15;25.30;49.30
63371;DHT22;49504;48.336;14.472;2023-05-08T20:47:37;25.30;49.20
63371;DHT22;49504;48.336;14.472;2023-05-08T20:50:58;25.30;49.20
63371;DHT22;49504;48.336;14.472;2023-05-08T20:54:20;25.30;49.20
63371;DHT22;49504;48.336;14.472;2023-05-08T20:57:41;25.30;49.10
63371;DHT22;49504;48.336;14.472;2023-05-08T21:01:03;25.30;49.10
63371;DHT22;49504;48.336;14.472;2023-05-08T21:05:39;25.30;48.60
63371;DHT22;49504;48.336;14.472;2023-05-08T21:09:00;25.30;49.00
63371;DHT22;49504;48.336;14.472;2023-05-08T21:12:21;25.30;49.10
63371;DHT22;49504;48.336;14.472;2023-05-08T21:15:42;25.30;49.10
63371;DHT22;49504;48.336;14.472;2023-05-08T21:21:16;25.30;48.70
63371;DHT22;49504;48.336;14.472;2023-05-08T21:26:04;25.30;48.60
63371;DHT22;49504;48.336;14.472;2023-05-08T21:29:25;25.30;49.10
63371;DHT22;49504;48.336;14.472;2023-05-08T21:32:46;25.30;49.10
63371;DHT22;49504;48.336;14.472;2023-05-08T21:38:05;25.20;48.60
63371;DHT22;49504;48.336;14.472;2023-05-08T21:41:26;25.20;48.90
63371;DHT22;49504;48.336;14.472;2023-05-08T21:44:48;25.20;48.90
63371;DHT22;49504;48.336;14.472;2023-05-08T21:48:09;25.20;48.90
63371;DHT22;49504;48.336;14.472;2023-05-08T21:51:30;25.20;48.80
63371;DHT22;49504;48.336;14.472;2023-05-08T21:54:52;25.20;48.80
63371;DHT22;49504;48.336;14.472;2023-05-08T21:58:13;25.20;48.80
63371;DHT22;49504;48.336;14.472;2023-05-08T22:01:35;25.20;48.80
63371;DHT22;49504;48.336;14.472;2023-05-08T22:04:56;25.20;48.70
63371;DHT22;49504;48.336;14.472;2023-05-08T22:08:17;25.20;48.60
63371;DHT22;49504;48.336;14.472;2023-05-08T22:11:39;25.20;48.80